createdAt,value
2017-12-09T00:00:39.038Z,0
2017-12-09T00:01:19.653Z,0
2017-12-09T00:02:00.358Z,0
2017-12-09T00:02:40.770Z,0
2017-12-09T00:03:22.372Z,0
2017-12-09T00:04:02.623Z,0
2017-12-09T00:04:43.045Z,0
2017-12-09T00:05:23.493Z,0
2017-12-09T00:06:04.105Z,0
2017-12-09T00:06:45.009Z,0
2017-12-09T00:07:25.254Z,0
2017-12-09T00:08:05.583Z,0
2017-12-09T00:08:46.968Z,0
2017-12-09T00:09:29.148Z,0
2017-12-09T00:10:10.786Z,0
2017-12-09T00:10:50.794Z,0
2017-12-09T00:11:31.196Z,0
2017-12-09T00:12:11.769Z,0
2017-12-09T00:12:52.455Z,0
2017-12-09T00:13:32.961Z,0
2017-12-09T00:14:13.647Z,0
2017-12-09T00:14:53.987Z,0
2017-12-09T00:15:34.380Z,0
2017-12-09T00:16:15.507Z,0
2017-12-09T00:16:55.775Z,0
2017-12-09T00:17:37.358Z,0
2017-12-09T00:18:18.267Z,0
2017-12-09T00:18:59.191Z,0
2017-12-09T00:19:39.450Z,0
2017-12-09T00:20:20.063Z,0
2017-12-09T00:21:00.427Z,0
2017-12-09T00:21:40.819Z,0
2017-12-09T00:22:21.451Z,0
2017-12-09T00:23:02.251Z,0
2017-12-09T00:23:42.448Z,0
2017-12-09T00:24:22.948Z,0
2017-12-09T00:25:03.342Z,0
2017-12-09T00:25:44.360Z,0
2017-12-09T00:26:25.513Z,0
2017-12-09T00:27:05.895Z,0
2017-12-09T00:27:46.772Z,0
2017-12-09T00:28:27.220Z,0
2017-12-09T00:29:07.616Z,0
2017-12-09T00:29:48.029Z,0
2017-12-09T00:30:28.620Z,0
2017-12-09T00:31:08.844Z,0
2017-12-09T00:31:49.246Z,0
2017-12-09T00:32:29.656Z,0
2017-12-09T00:33:10.005Z,0
2017-12-09T00:33:50.430Z,0
2017-12-09T00:34:31.591Z,0
2017-12-09T00:35:12.064Z,0
2017-12-09T00:35:52.432Z,0
2017-12-09T00:36:36.842Z,0
2017-12-09T00:37:17.124Z,0
2017-12-09T00:37:58.330Z,0
2017-12-09T00:38:38.683Z,0
2017-12-09T00:39:19.145Z,0
2017-12-09T00:39:59.767Z,0
2017-12-09T00:40:40.175Z,0
2017-12-09T00:41:20.583Z,0
2017-12-09T00:42:01.217Z,0
2017-12-09T00:42:42.061Z,0
2017-12-09T00:43:22.710Z,0
2017-12-09T00:44:04.248Z,0
2017-12-09T00:44:44.287Z,0
2017-12-09T00:45:25.619Z,0
2017-12-09T00:46:06.599Z,0
2017-12-09T00:50:16.717Z,0
2017-12-09T00:51:10.066Z,0
2017-12-09T00:52:02.996Z,0
2017-12-09T00:52:54.426Z,0
2017-12-09T00:53:45.063Z,0
2017-12-09T00:54:35.895Z,0
2017-12-09T00:55:26.157Z,0
2017-12-09T00:56:07.795Z,0
2017-12-09T00:56:50.358Z,0
2017-12-09T00:57:30.681Z,0
2017-12-09T00:58:11.081Z,0
2017-12-09T00:58:52.137Z,0
2017-12-09T00:59:34.400Z,0
2017-12-09T01:00:15.684Z,0
2017-12-09T01:00:56.411Z,0
2017-12-09T01:01:36.849Z,0
2017-12-09T01:02:17.584Z,0
2017-12-09T01:02:59.729Z,0
2017-12-09T01:03:40.652Z,0
2017-12-09T01:04:21.434Z,0
2017-12-09T01:05:03.402Z,0
2017-12-09T01:05:46.439Z,0
2017-12-09T01:06:27.482Z,0
2017-12-09T01:07:08.331Z,0
2017-12-09T01:07:48.719Z,0
2017-12-09T01:08:29.400Z,0
2017-12-09T01:11:08.434Z,0
2017-12-09T01:11:48.921Z,0
2017-12-09T01:12:29.253Z,0
2017-12-09T01:13:09.686Z,0
2017-12-09T01:14:00.856Z,0
2017-12-09T01:14:41.358Z,0
2017-12-09T01:15:21.744Z,0
2017-12-09T01:16:02.185Z,0
2017-12-09T01:16:42.594Z,0
2017-12-09T01:17:22.988Z,0
2017-12-09T01:18:03.372Z,0
2017-12-09T01:18:43.800Z,0
2017-12-09T01:19:24.205Z,0
2017-12-09T01:20:04.565Z,0
2017-12-09T01:20:45.012Z,0
2017-12-09T01:21:25.440Z,0
2017-12-09T01:22:06.124Z,0
2017-12-09T01:22:46.543Z,0
2017-12-09T01:23:27.003Z,0
2017-12-09T01:24:07.423Z,0
2017-12-09T01:24:47.816Z,0
2017-12-09T01:25:28.575Z,0
2017-12-09T01:26:08.887Z,0
2017-12-09T01:26:49.103Z,0
2017-12-09T01:27:29.497Z,0
2017-12-09T01:28:09.888Z,0
2017-12-09T01:28:50.300Z,0
2017-12-09T01:29:30.704Z,0
2017-12-09T01:30:11.136Z,0
2017-12-09T01:30:51.792Z,0
2017-12-09T01:33:19.978Z,0
2017-12-09T01:34:05.717Z,0
2017-12-09T01:34:45.939Z,0
2017-12-09T01:35:26.426Z,0
2017-12-09T01:36:07.465Z,0
2017-12-09T01:36:47.753Z,0
2017-12-09T01:37:28.067Z,0
2017-12-09T01:38:08.726Z,0
2017-12-09T01:38:48.924Z,0
2017-12-09T01:39:29.898Z,0
2017-12-09T01:40:10.212Z,0
2017-12-09T01:40:50.818Z,0
2017-12-09T01:41:33.404Z,0
2017-12-09T01:42:14.601Z,0
2017-12-09T01:42:54.851Z,0
2017-12-09T01:43:35.626Z,0
2017-12-09T01:44:16.170Z,0
2017-12-09T01:44:57.210Z,0
2017-12-09T01:45:37.655Z,0
2017-12-09T01:46:18.794Z,0
2017-12-09T01:46:59.250Z,0
2017-12-09T01:47:39.534Z,0
2017-12-09T01:48:19.872Z,0
2017-12-09T01:49:01.910Z,0
2017-12-09T01:49:43.074Z,0
2017-12-09T01:50:25.990Z,0
2017-12-09T01:51:05.734Z,0
2017-12-09T01:51:46.007Z,0
2017-12-09T01:52:26.628Z,0
2017-12-09T01:53:08.357Z,0
2017-12-09T01:53:48.808Z,0
2017-12-09T01:54:29.739Z,0
2017-12-09T01:55:10.172Z,0
2017-12-09T01:55:50.609Z,0
2017-12-09T01:56:31.006Z,0
2017-12-09T01:57:12.394Z,0
2017-12-09T01:57:54.453Z,0
2017-12-09T01:58:35.873Z,0
2017-12-09T01:59:18.567Z,0
2017-12-09T02:00:00.161Z,0
2017-12-09T02:00:40.587Z,0
2017-12-09T02:01:21.082Z,0
2017-12-09T02:02:01.409Z,0
2017-12-09T02:02:43.680Z,0
2017-12-09T02:03:23.991Z,0
2017-12-09T02:04:04.445Z,0
2017-12-09T02:04:46.744Z,0
2017-12-09T02:05:29.289Z,0
2017-12-09T02:06:09.659Z,0
2017-12-09T02:07:04.864Z,0
2017-12-09T02:07:45.478Z,0
2017-12-09T02:08:26.264Z,0
2017-12-09T02:09:06.687Z,0
2017-12-09T02:09:47.126Z,0
2017-12-09T02:10:27.492Z,0
2017-12-09T02:11:07.903Z,0
2017-12-09T02:11:48.405Z,0
2017-12-09T02:12:28.974Z,0
2017-12-09T02:13:09.317Z,0
2017-12-09T02:13:49.960Z,0
2017-12-09T02:14:30.279Z,0
2017-12-09T02:15:10.806Z,0
2017-12-09T02:15:51.262Z,0
2017-12-09T02:16:31.556Z,0
2017-12-09T02:17:11.957Z,0
2017-12-09T02:17:52.947Z,0
2017-12-09T02:18:33.836Z,0
2017-12-09T02:19:14.000Z,0
2017-12-09T02:19:55.986Z,0
2017-12-09T02:20:36.381Z,0
2017-12-09T02:21:17.543Z,0
2017-12-09T02:21:58.055Z,0
2017-12-09T02:22:38.452Z,0
2017-12-09T02:23:18.940Z,0
2017-12-09T02:23:59.333Z,0
2017-12-09T02:24:40.639Z,0
2017-12-09T02:25:21.053Z,0
2017-12-09T02:26:01.405Z,0
2017-12-09T02:26:41.773Z,0
2017-12-09T02:27:22.227Z,0
2017-12-09T02:28:03.696Z,0
2017-12-09T02:28:44.108Z,0
2017-12-09T02:29:24.871Z,0
2017-12-09T02:30:05.777Z,0
2017-12-09T02:30:46.055Z,0
2017-12-09T02:31:27.057Z,0
2017-12-09T02:32:06.947Z,0
2017-12-09T02:32:49.736Z,0
2017-12-09T02:33:30.012Z,0
2017-12-09T02:34:10.508Z,0
2017-12-09T02:34:50.901Z,0
2017-12-09T02:35:31.307Z,0
2017-12-09T02:36:11.692Z,0
2017-12-09T02:36:52.461Z,0
2017-12-09T02:37:33.250Z,0
2017-12-09T02:38:13.628Z,0
2017-12-09T02:38:54.934Z,0
2017-12-09T02:39:36.141Z,0
2017-12-09T02:40:16.549Z,0
2017-12-09T02:40:56.969Z,0
2017-12-09T02:41:37.412Z,0
2017-12-09T02:42:17.736Z,0
2017-12-09T02:42:58.178Z,0
2017-12-09T02:43:39.419Z,0
2017-12-09T02:44:20.142Z,0
2017-12-09T02:45:00.615Z,0
2017-12-09T02:45:42.541Z,0
2017-12-09T02:46:23.044Z,0
2017-12-09T02:47:04.061Z,0
2017-12-09T02:47:44.441Z,0
2017-12-09T02:48:28.401Z,0
2017-12-09T02:49:08.511Z,0
2017-12-09T02:49:48.899Z,0
2017-12-09T02:50:29.416Z,0
2017-12-09T02:51:09.961Z,0
2017-12-09T02:51:50.743Z,0
2017-12-09T02:52:31.082Z,0
2017-12-09T02:53:11.603Z,0
2017-12-09T02:53:52.161Z,0
2017-12-09T02:54:32.562Z,0
2017-12-09T02:55:13.062Z,0
2017-12-09T02:55:55.164Z,0
2017-12-09T02:56:36.292Z,0
2017-12-09T02:57:17.605Z,0
2017-12-09T02:57:58.033Z,0
2017-12-09T02:58:38.375Z,0
2017-12-09T02:59:20.801Z,0
2017-12-09T03:00:01.217Z,0
2017-12-09T03:00:41.878Z,0
2017-12-09T03:01:22.847Z,0
2017-12-09T03:02:07.734Z,0
2017-12-09T03:02:48.337Z,0
2017-12-09T03:03:28.702Z,0
2017-12-09T03:04:09.139Z,0
2017-12-09T03:04:49.721Z,0
2017-12-09T03:05:30.858Z,0
2017-12-09T03:06:11.273Z,0
2017-12-09T03:06:51.798Z,0
2017-12-09T03:07:32.237Z,0
2017-12-09T03:08:13.496Z,0
2017-12-09T03:08:53.697Z,0
2017-12-09T03:09:34.158Z,0
2017-12-09T03:10:14.602Z,0
2017-12-09T03:10:55.354Z,0
2017-12-09T03:11:35.810Z,0
2017-12-09T03:12:16.333Z,0
2017-12-09T03:12:59.302Z,0
2017-12-09T03:13:40.051Z,0
2017-12-09T03:14:21.420Z,0
2017-12-09T03:15:01.840Z,0
2017-12-09T03:15:42.233Z,0
2017-12-09T03:16:22.992Z,0
2017-12-09T03:17:03.747Z,0
2017-12-09T03:17:44.435Z,0
2017-12-09T03:18:24.904Z,0
2017-12-09T03:19:05.246Z,0
2017-12-09T03:19:45.685Z,0
2017-12-09T03:20:26.087Z,0
2017-12-09T03:21:07.057Z,0
2017-12-09T03:21:47.523Z,0
2017-12-09T03:22:27.942Z,0
2017-12-09T03:23:08.962Z,0
2017-12-09T03:23:49.843Z,0
2017-12-09T03:24:32.683Z,0
2017-12-09T03:25:13.025Z,0
2017-12-09T03:25:53.520Z,0
2017-12-09T03:26:34.127Z,0
2017-12-09T03:27:15.420Z,0
2017-12-09T03:27:55.620Z,0
2017-12-09T03:28:36.578Z,0
2017-12-09T03:29:17.657Z,0
2017-12-09T03:29:58.061Z,0
2017-12-09T03:30:38.454Z,0
2017-12-09T03:31:18.954Z,0
2017-12-09T03:31:59.380Z,0
2017-12-09T03:32:39.958Z,0
2017-12-09T03:33:22.253Z,0
2017-12-09T03:34:02.503Z,0
2017-12-09T03:34:43.051Z,0
2017-12-09T03:35:24.536Z,0
2017-12-09T03:36:05.324Z,0
2017-12-09T03:36:47.886Z,0
2017-12-09T03:37:27.899Z,0
2017-12-09T03:38:10.400Z,0
2017-12-09T03:38:51.401Z,0
2017-12-09T03:39:32.318Z,0
2017-12-09T03:40:13.353Z,0
2017-12-09T03:40:54.876Z,0
2017-12-09T03:41:35.852Z,0
2017-12-09T03:42:16.833Z,0
2017-12-09T03:42:57.065Z,0
2017-12-09T03:43:37.435Z,0
2017-12-09T03:44:19.334Z,0
2017-12-09T03:45:00.658Z,0
2017-12-09T03:45:41.451Z,0
2017-12-09T03:46:22.655Z,0
2017-12-09T03:47:03.009Z,0
2017-12-09T03:47:43.528Z,0
2017-12-09T03:48:23.993Z,0
2017-12-09T03:49:04.499Z,0
2017-12-09T03:49:44.972Z,0
2017-12-09T03:50:25.881Z,0
2017-12-09T03:51:06.158Z,0
2017-12-09T03:51:46.564Z,0
2017-12-09T03:52:27.022Z,0
2017-12-09T03:53:07.529Z,0
2017-12-09T03:53:47.974Z,0
2017-12-09T03:54:28.812Z,0
2017-12-09T03:55:09.142Z,0
2017-12-09T03:55:49.771Z,0
2017-12-09T03:56:31.407Z,0
2017-12-09T03:57:11.880Z,0
2017-12-09T03:57:52.234Z,0
2017-12-09T03:58:32.712Z,0
2017-12-09T03:59:13.074Z,0
2017-12-09T03:59:53.772Z,0
2017-12-09T04:00:34.210Z,0
2017-12-09T04:01:14.556Z,0
2017-12-09T04:01:55.958Z,0
2017-12-09T04:41:37.580Z,0
2017-12-09T04:42:17.916Z,0
2017-12-09T04:42:58.329Z,0
2017-12-09T04:43:38.732Z,0
2017-12-09T04:44:19.102Z,0
2017-12-09T04:44:59.537Z,0
2017-12-09T04:45:39.905Z,0
2017-12-09T04:46:20.278Z,0
2017-12-09T04:47:00.676Z,0
2017-12-09T04:47:41.060Z,0
2017-12-09T04:48:22.008Z,0
2017-12-09T04:49:02.391Z,0
2017-12-09T04:49:42.810Z,0
2017-12-09T04:50:23.195Z,0
2017-12-09T04:51:03.597Z,0
2017-12-09T04:51:44.023Z,0
2017-12-09T04:53:58.919Z,0
2017-12-09T04:54:39.890Z,0
2017-12-09T04:55:20.413Z,0
2017-12-09T04:56:00.688Z,0
2017-12-09T04:56:41.048Z,0
2017-12-09T04:57:21.722Z,0
2017-12-09T04:58:02.160Z,0
2017-12-09T04:58:42.621Z,0
2017-12-09T04:59:23.236Z,0
2017-12-09T05:00:03.512Z,0
2017-12-09T05:00:44.021Z,0
2017-12-09T05:01:24.421Z,0
2017-12-09T05:02:04.817Z,0
2017-12-09T05:02:45.226Z,0
2017-12-09T05:03:25.619Z,0
2017-12-09T05:04:06.132Z,0
2017-12-09T05:04:46.501Z,0
2017-12-09T05:05:26.902Z,0
2017-12-09T05:06:07.300Z,0
2017-12-09T05:06:47.746Z,0
2017-12-09T05:07:28.131Z,0
2017-12-09T05:08:08.550Z,0
2017-12-09T05:08:48.957Z,0
2017-12-09T05:09:29.362Z,0
2017-12-09T05:10:09.739Z,0
2017-12-09T05:10:50.145Z,0
2017-12-09T05:11:30.553Z,0
2017-12-09T05:12:10.964Z,0
2017-12-09T05:12:51.428Z,0
2017-12-09T05:13:31.776Z,0
2017-12-09T05:14:12.269Z,0
2017-12-09T05:14:52.561Z,0
2017-12-09T05:15:32.988Z,0
2017-12-09T05:22:43.174Z,0
2017-12-09T05:23:23.658Z,0
2017-12-09T05:27:22.761Z,0
2017-12-09T05:28:03.751Z,0
2017-12-09T05:28:44.610Z,0
2017-12-09T05:29:24.840Z,0
2017-12-09T05:30:05.787Z,0
2017-12-09T05:30:46.983Z,0
2017-12-09T05:31:27.470Z,0
2017-12-09T05:32:08.792Z,0
2017-12-09T05:32:49.862Z,0
2017-12-09T05:33:31.208Z,0
2017-12-09T05:34:12.256Z,0
2017-12-09T05:34:52.779Z,0
2017-12-09T05:35:33.447Z,0
2017-12-09T05:36:15.240Z,0
2017-12-09T05:36:55.345Z,0
2017-12-09T05:37:37.585Z,0
2017-12-09T05:38:18.228Z,0
2017-12-09T05:38:58.840Z,0
2017-12-09T05:39:39.751Z,0
2017-12-09T05:40:20.260Z,0
2017-12-09T05:41:01.278Z,0
2017-12-09T05:41:41.949Z,0
2017-12-09T05:42:22.211Z,0
2017-12-09T05:43:03.481Z,0
2017-12-09T05:43:43.670Z,0
2017-12-09T05:44:24.689Z,0
2017-12-09T05:45:05.608Z,0
2017-12-09T05:45:46.743Z,0
2017-12-09T05:46:27.903Z,0
2017-12-09T05:47:09.144Z,0
2017-12-09T05:47:50.132Z,0
2017-12-09T05:48:31.302Z,0
2017-12-09T05:49:12.158Z,0
2017-12-09T05:49:53.177Z,0
2017-12-09T05:50:34.009Z,0
2017-12-09T05:51:14.266Z,0
2017-12-09T05:51:54.830Z,0
2017-12-09T05:52:35.342Z,0
2017-12-09T05:53:15.911Z,0
2017-12-09T05:55:47.800Z,0
2017-12-09T05:56:43.332Z,0
2017-12-09T05:57:35.807Z,0
2017-12-09T05:58:28.360Z,0
2017-12-09T05:59:21.029Z,0
2017-12-09T06:00:13.357Z,0
2017-12-09T06:01:06.042Z,0
2017-12-09T06:03:42.646Z,0
2017-12-09T06:04:23.185Z,0
2017-12-09T06:05:03.616Z,0
2017-12-09T06:05:44.834Z,0
2017-12-09T06:06:25.184Z,0
2017-12-09T06:07:05.628Z,0
2017-12-09T06:07:46.132Z,0
2017-12-09T06:08:26.693Z,0
2017-12-09T06:09:07.118Z,0
2017-12-09T06:09:47.533Z,0
2017-12-09T06:10:27.976Z,0
2017-12-09T06:11:08.500Z,0
2017-12-09T06:11:48.899Z,0
2017-12-09T06:12:29.313Z,0
2017-12-09T06:13:10.349Z,0
2017-12-09T06:13:50.894Z,0
2017-12-09T06:14:31.311Z,0
2017-12-09T06:15:12.093Z,0
2017-12-09T06:15:52.487Z,0
2017-12-09T06:16:32.930Z,0
2017-12-09T06:17:13.443Z,0
2017-12-09T06:17:53.947Z,0
2017-12-09T06:18:34.413Z,0
2017-12-09T06:19:14.790Z,0
2017-12-09T06:19:55.289Z,0
2017-12-09T06:20:35.740Z,0
2017-12-09T06:21:18.861Z,0
2017-12-09T06:21:59.237Z,0
2017-12-09T06:22:39.638Z,0
2017-12-09T06:23:20.620Z,0
2017-12-09T06:24:01.025Z,0
2017-12-09T06:24:42.683Z,0
2017-12-09T06:25:23.061Z,0
2017-12-09T06:26:03.681Z,0
2017-12-09T06:26:44.010Z,0
2017-12-09T06:27:24.688Z,0
2017-12-09T06:28:04.838Z,0
2017-12-09T06:30:49.756Z,0
2017-12-09T06:33:36.699Z,0
2017-12-09T06:34:28.760Z,0
2017-12-09T06:35:21.273Z,0
2017-12-09T06:36:13.712Z,0
2017-12-09T06:37:06.439Z,0
2017-12-09T06:37:58.678Z,0
2017-12-09T06:38:51.353Z,0
2017-12-09T06:39:43.488Z,0
2017-12-09T06:40:35.225Z,0
2017-12-09T06:41:27.615Z,0
2017-12-09T06:42:16.537Z,0
2017-12-09T06:42:56.909Z,0
2017-12-09T06:43:37.226Z,0
2017-12-09T06:44:17.654Z,0
2017-12-09T06:44:58.393Z,0
2017-12-09T06:45:39.052Z,0
2017-12-09T06:46:20.139Z,0
2017-12-09T06:47:00.237Z,0
2017-12-09T06:47:40.752Z,0
2017-12-09T06:48:21.155Z,0
2017-12-09T06:49:01.702Z,0
2017-12-09T06:49:41.955Z,4
2017-12-09T06:50:23.029Z,4
2017-12-09T06:51:03.314Z,0
2017-12-09T06:51:43.751Z,0
2017-12-09T06:52:24.172Z,0
2017-12-09T06:53:04.504Z,0
2017-12-09T06:53:44.963Z,4
2017-12-09T06:54:26.342Z,4
2017-12-09T06:55:06.733Z,0
2017-12-09T06:55:47.557Z,0
2017-12-09T06:56:28.775Z,4
2017-12-09T06:57:09.154Z,0
2017-12-09T06:57:49.536Z,4
2017-12-09T06:58:29.935Z,4
2017-12-09T06:59:10.296Z,4
2017-12-09T06:59:50.818Z,4
2017-12-09T07:00:31.261Z,4
2017-12-09T07:01:11.583Z,4
2017-12-09T07:01:52.133Z,4
2017-12-09T07:02:33.237Z,4
2017-12-09T07:03:13.649Z,8
2017-12-09T07:03:54.044Z,4
2017-12-09T07:04:34.687Z,8
2017-12-09T07:05:15.129Z,8
2017-12-09T07:05:56.360Z,8
2017-12-09T07:06:36.751Z,8
2017-12-09T07:07:17.228Z,12
2017-12-09T07:07:57.707Z,8
2017-12-09T07:08:38.008Z,12
2017-12-09T07:09:18.430Z,12
2017-12-09T07:09:58.761Z,12
2017-12-09T07:10:39.165Z,12
2017-12-09T07:11:19.691Z,16
2017-12-09T07:12:00.046Z,12
2017-12-09T07:12:40.426Z,16
2017-12-09T07:13:20.813Z,16
2017-12-09T07:14:01.260Z,20
2017-12-09T07:14:41.677Z,20
2017-12-09T07:15:22.048Z,24
2017-12-09T07:16:02.460Z,24
2017-12-09T07:16:42.912Z,24
2017-12-09T07:17:23.246Z,24
2017-12-09T07:18:03.708Z,24
2017-12-09T07:18:44.084Z,28
2017-12-09T07:19:25.446Z,28
2017-12-09T07:20:05.806Z,32
2017-12-09T07:20:46.201Z,28
2017-12-09T07:21:26.591Z,32
2017-12-09T07:22:07.049Z,32
2017-12-09T07:22:47.412Z,36
2017-12-09T07:23:27.820Z,36
2017-12-09T07:24:08.185Z,40
2017-12-09T07:24:48.628Z,40
2017-12-09T07:25:29.045Z,44
2017-12-09T07:26:09.498Z,48
2017-12-09T07:26:49.844Z,52
2017-12-09T07:27:30.172Z,52
2017-12-09T07:28:10.586Z,56
2017-12-09T07:28:50.999Z,56
2017-12-09T07:29:31.433Z,56
2017-12-09T07:30:11.756Z,60
2017-12-09T07:30:52.255Z,56
2017-12-09T07:31:32.622Z,56
2017-12-09T07:32:13.022Z,60
2017-12-09T07:32:54.059Z,60
2017-12-09T07:33:34.470Z,56
2017-12-09T07:34:15.033Z,60
2017-12-09T07:34:55.309Z,60
2017-12-09T07:35:35.861Z,60
2017-12-09T07:36:16.299Z,64
2017-12-09T07:36:56.631Z,60
2017-12-09T07:37:37.105Z,60
2017-12-09T07:38:17.798Z,64
2017-12-09T07:38:58.212Z,72
2017-12-09T07:39:38.742Z,68
2017-12-09T07:40:19.318Z,64
2017-12-09T07:40:59.708Z,68
2017-12-09T07:41:40.059Z,68
2017-12-09T07:42:20.502Z,68
2017-12-09T07:43:00.911Z,72
2017-12-09T07:43:41.749Z,72
2017-12-09T07:44:22.146Z,72
2017-12-09T07:45:02.581Z,72
2017-12-09T07:45:42.921Z,80
2017-12-09T07:46:23.354Z,84
2017-12-09T07:47:03.924Z,84
2017-12-09T07:47:45.394Z,88
2017-12-09T07:48:26.552Z,108
2017-12-09T07:49:07.786Z,84
2017-12-09T07:49:48.082Z,84
2017-12-09T07:50:28.561Z,84
2017-12-09T07:51:08.926Z,88
2017-12-09T07:51:49.385Z,84
2017-12-09T07:52:29.783Z,88
2017-12-09T07:53:10.176Z,84
2017-12-09T07:53:50.588Z,84
2017-12-09T07:54:30.923Z,80
2017-12-09T07:55:11.340Z,76
2017-12-09T07:55:52.679Z,80
2017-12-09T07:56:32.972Z,80
2017-12-09T07:57:13.378Z,76
2017-12-09T07:57:53.916Z,76
2017-12-09T07:58:34.259Z,80
2017-12-09T07:59:14.640Z,80
2017-12-09T07:59:55.008Z,84
2017-12-09T08:00:35.358Z,80
2017-12-09T08:01:15.804Z,80
2017-12-09T08:01:56.167Z,84
2017-12-09T08:02:36.586Z,84
2017-12-09T08:03:17.190Z,80
2017-12-09T08:03:57.532Z,84
2017-12-09T08:04:38.738Z,80
2017-12-09T08:05:18.977Z,80
2017-12-09T08:05:59.358Z,84
2017-12-09T08:06:39.785Z,88
2017-12-09T08:07:20.192Z,88
2017-12-09T08:08:00.733Z,88
2017-12-09T08:08:41.199Z,92
2017-12-09T08:09:21.992Z,100
2017-12-09T08:10:02.535Z,108
2017-12-09T08:10:43.108Z,124
2017-12-09T08:11:23.706Z,144
2017-12-09T08:12:05.306Z,172
2017-12-09T08:12:46.217Z,188
2017-12-09T08:13:26.605Z,196
2017-12-09T08:14:07.591Z,212
2017-12-09T08:14:48.514Z,208
2017-12-09T08:15:28.759Z,212
2017-12-09T08:16:09.720Z,200
2017-12-09T08:16:49.877Z,196
2017-12-09T08:17:30.275Z,188
2017-12-09T08:18:10.639Z,176
2017-12-09T08:18:51.051Z,168
2017-12-09T08:19:31.456Z,156
2017-12-09T08:20:11.860Z,148
2017-12-09T08:20:52.299Z,140
2017-12-09T08:21:32.655Z,132
2017-12-09T08:22:13.073Z,128
2017-12-09T08:22:53.483Z,128
2017-12-09T08:23:33.931Z,128
2017-12-09T08:24:14.324Z,128
2017-12-09T08:24:55.601Z,144
2017-12-09T08:25:36.021Z,152
2017-12-09T08:26:16.388Z,164
2017-12-09T08:26:56.775Z,180
2017-12-09T08:27:37.280Z,176
2017-12-09T08:28:17.765Z,176
2017-12-09T08:28:58.181Z,168
2017-12-09T08:29:38.582Z,164
2017-12-09T08:30:18.914Z,160
2017-12-09T08:31:00.637Z,156
2017-12-09T08:31:40.440Z,156
2017-12-09T08:32:20.883Z,152
2017-12-09T08:33:01.452Z,156
2017-12-09T08:33:42.070Z,168
2017-12-09T08:34:22.529Z,176
2017-12-09T08:35:02.903Z,188
2017-12-09T08:35:43.277Z,192
2017-12-09T08:36:23.835Z,208
2017-12-09T08:37:04.963Z,216
2017-12-09T08:37:45.378Z,208
2017-12-09T08:38:25.697Z,204
2017-12-09T08:39:06.088Z,216
2017-12-09T08:39:46.550Z,224
2017-12-09T08:40:27.493Z,208
2017-12-09T08:41:07.785Z,208
2017-12-09T08:41:48.538Z,200
2017-12-09T08:42:29.142Z,200
2017-12-09T08:43:09.608Z,192
2017-12-09T08:43:49.931Z,192
2017-12-09T08:44:31.120Z,204
2017-12-09T08:45:11.523Z,220
2017-12-09T08:45:51.835Z,236
2017-12-09T08:46:32.256Z,260
2017-12-09T08:47:12.645Z,292
2017-12-09T08:47:53.035Z,312
2017-12-09T08:48:33.486Z,312
2017-12-09T08:49:13.994Z,332
2017-12-09T08:49:55.348Z,364
2017-12-09T08:50:35.707Z,380
2017-12-09T08:51:16.206Z,392
2017-12-09T08:51:56.682Z,408
2017-12-09T08:52:36.999Z,424
2017-12-09T08:53:17.395Z,432
2017-12-09T08:53:58.064Z,444
2017-12-09T08:54:38.447Z,444
2017-12-09T08:55:19.017Z,480
2017-12-09T08:55:59.385Z,496
2017-12-09T08:56:39.842Z,516
2017-12-09T08:57:21.359Z,516
2017-12-09T08:58:01.697Z,528
2017-12-09T08:58:42.276Z,528
2017-12-09T08:59:22.700Z,524
2017-12-09T09:00:03.149Z,504
2017-12-09T09:00:43.417Z,520
2017-12-09T09:01:23.959Z,504
2017-12-09T09:02:04.329Z,492
2017-12-09T09:02:44.725Z,472
2017-12-09T09:03:25.130Z,456
2017-12-09T09:04:05.549Z,436
2017-12-09T09:04:45.980Z,400
2017-12-09T09:05:26.323Z,364
2017-12-09T09:06:06.679Z,336
2017-12-09T09:06:47.309Z,304
2017-12-09T09:07:28.468Z,280
2017-12-09T09:08:08.837Z,268
2017-12-09T09:08:49.259Z,256
2017-12-09T09:09:29.612Z,244
2017-12-09T09:10:10.150Z,232
2017-12-09T09:10:50.838Z,220
2017-12-09T09:11:32.032Z,204
2017-12-09T09:12:12.411Z,196
2017-12-09T09:12:52.810Z,172
2017-12-09T09:13:33.200Z,152
2017-12-09T09:14:14.265Z,140
2017-12-09T09:14:54.661Z,128
2017-12-09T09:15:35.021Z,116
2017-12-09T09:16:15.401Z,116
2017-12-09T09:16:55.803Z,112
2017-12-09T09:17:36.200Z,112
2017-12-09T09:18:16.629Z,112
2017-12-09T09:18:57.091Z,116
2017-12-09T09:19:37.511Z,124
2017-12-09T09:20:17.928Z,132
2017-12-09T09:20:59.048Z,136
2017-12-09T09:21:39.434Z,140
2017-12-09T09:22:19.851Z,144
2017-12-09T09:23:00.267Z,148
2017-12-09T09:23:40.697Z,156
2017-12-09T09:24:21.056Z,160
2017-12-09T09:25:01.648Z,160
2017-12-09T09:25:44.910Z,160
2017-12-09T09:26:27.850Z,160
2017-12-09T09:27:08.375Z,164
2017-12-09T09:29:44.497Z,148
2017-12-09T09:30:24.674Z,148
2017-12-09T09:31:05.425Z,144
2017-12-09T09:31:47.586Z,148
2017-12-09T09:32:30.716Z,152
2017-12-09T09:33:15.442Z,164
2017-12-09T09:33:56.195Z,172
2017-12-09T09:34:36.619Z,176
2017-12-09T09:35:17.086Z,184
2017-12-09T09:35:59.051Z,188
2017-12-09T09:36:41.896Z,192
2017-12-09T09:37:23.457Z,192
2017-12-09T09:38:04.583Z,196
2017-12-09T09:38:45.685Z,180
2017-12-09T09:39:25.967Z,168
2017-12-09T09:40:07.003Z,172
2017-12-09T09:40:47.289Z,168
2017-12-09T09:41:27.842Z,168
2017-12-09T09:42:12.354Z,164
2017-12-09T09:42:53.810Z,164
2017-12-09T09:43:34.252Z,168
2017-12-09T09:44:14.640Z,168
2017-12-09T09:44:55.333Z,164
2017-12-09T09:45:37.358Z,164
2017-12-09T09:46:17.685Z,160
2017-12-09T09:46:59.008Z,152
2017-12-09T09:47:39.755Z,156
2017-12-09T09:53:33.176Z,172
2017-12-09T09:54:22.655Z,184
2017-12-09T09:59:14.015Z,272
2017-12-09T10:42:22.408Z,376
2017-12-09T10:43:07.137Z,388
2017-12-09T10:43:47.957Z,408
2017-12-09T10:44:28.865Z,436
2017-12-09T10:45:10.037Z,448
2017-12-09T10:45:51.497Z,456
2017-12-09T10:46:33.916Z,448
2017-12-09T10:47:15.757Z,436
2017-12-09T10:47:57.678Z,384
2017-12-09T10:48:39.986Z,368
2017-12-09T10:49:20.250Z,352
2017-12-09T10:50:01.468Z,316
2017-12-09T10:50:43.131Z,312
2017-12-09T10:51:23.680Z,308
2017-12-09T10:52:05.688Z,336
2017-12-09T10:52:46.169Z,352
2017-12-09T10:53:27.059Z,328
2017-12-09T10:54:08.343Z,316
2017-12-09T10:54:49.246Z,320
2017-12-09T10:55:29.822Z,352
2017-12-09T10:56:10.874Z,348
2017-12-09T10:56:52.029Z,312
2017-12-09T10:57:32.398Z,300
2017-12-09T10:58:12.891Z,304
2017-12-09T10:58:53.846Z,276
2017-12-09T10:59:34.676Z,268
2017-12-09T11:00:15.602Z,252
2017-12-09T11:00:57.563Z,232
2017-12-09T11:01:37.998Z,232
2017-12-09T11:02:18.699Z,220
2017-12-09T11:02:59.679Z,220
2017-12-09T11:03:40.881Z,212
2017-12-09T11:04:21.397Z,208
2017-12-09T11:05:01.968Z,200
2017-12-09T11:05:43.933Z,192
2017-12-09T11:06:25.912Z,176
2017-12-09T11:07:08.849Z,160
2017-12-09T11:07:50.279Z,156
2017-12-09T11:08:30.953Z,188
2017-12-09T11:09:12.090Z,184
2017-12-09T11:09:52.558Z,168
2017-12-09T11:10:33.141Z,168
2017-12-09T11:11:16.223Z,184
2017-12-09T11:11:57.516Z,212
2017-12-09T11:12:37.718Z,232
2017-12-09T11:13:19.020Z,224
2017-12-09T11:13:59.602Z,220
2017-12-09T11:14:39.858Z,200
2017-12-09T11:15:20.412Z,196
2017-12-09T11:16:00.722Z,216
2017-12-09T11:16:42.097Z,228
2017-12-09T11:17:22.417Z,244
2017-12-09T11:18:03.215Z,232
2017-12-09T11:18:44.194Z,224
2017-12-09T11:19:24.449Z,220
2017-12-09T11:20:05.094Z,228
2017-12-09T11:20:46.118Z,252
2017-12-09T11:21:29.589Z,280
2017-12-09T11:22:10.203Z,296
2017-12-09T11:22:50.636Z,308
2017-12-09T11:23:31.780Z,316
2017-12-09T11:24:11.803Z,324
2017-12-09T11:24:53.060Z,348
2017-12-09T11:25:33.445Z,404
2017-12-09T11:26:14.920Z,432
2017-12-09T11:26:56.873Z,448
2017-12-09T11:27:38.062Z,476
2017-12-09T11:28:19.786Z,468
2017-12-09T11:29:02.877Z,436
2017-12-09T11:29:43.685Z,420
2017-12-09T11:30:24.271Z,404
2017-12-09T11:31:05.360Z,388
2017-12-09T11:31:45.753Z,436
2017-12-09T11:32:26.291Z,480
2017-12-09T11:33:06.738Z,488
2017-12-09T11:33:47.383Z,456
2017-12-09T11:34:28.410Z,464
2017-12-09T11:35:09.244Z,496
2017-12-09T11:35:49.879Z,520
2017-12-09T11:36:30.793Z,492
2017-12-09T11:37:12.459Z,440
2017-12-09T11:37:53.133Z,456
2017-12-09T11:38:33.609Z,464
2017-12-09T11:39:14.409Z,436
2017-12-09T11:39:54.601Z,416
2017-12-09T11:40:35.915Z,388
2017-12-09T11:41:16.905Z,388
2017-12-09T11:41:57.531Z,412
2017-12-09T11:42:37.831Z,424
2017-12-09T11:43:18.364Z,408
2017-12-09T11:43:59.990Z,416
2017-12-09T11:44:40.389Z,416
2017-12-09T11:45:21.628Z,428
2017-12-09T11:46:03.134Z,424
2017-12-09T11:46:43.876Z,424
2017-12-09T11:47:28.030Z,404
2017-12-09T11:48:08.743Z,384
2017-12-09T11:48:49.316Z,376
2017-12-09T11:49:29.861Z,360
2017-12-09T11:50:10.495Z,384
2017-12-09T11:50:51.398Z,384
2017-12-09T11:51:31.743Z,360
2017-12-09T11:52:13.280Z,344